sensor_id;sensor_type;location;lat;lon;timestamp;P1;durP1;ratioP1;P2;durP2;ratioP2
50128;SDS011;36026;45.478;9.224;2023-07-24T00:02:38;17.35;;;9.77;;
50128;SDS011;36026;45.478;9.224;2023-07-24T00:05:39;14.32;;;8.73;;
50128;SDS011;36026;45.478;9.224;2023-07-24T00:08:41;17.02;;;9.20;;
50128;SDS011;36026;45.478;9.224;2023-07-24T00:11:42;16.58;;;9.20;;
50128;SDS011;36026;45.478;9.224;2023-07-24T00:14:45;15.05;;;9.10;;
50128;SDS011;36026;45.478;9.224;2023-07-24T00:17:46;14.75;;;8.88;;
50128;SDS011;36026;45.478;9.224;2023-07-24T00:20:48;17.35;;;9.07;;
50128;SDS011;36026;45.478;9.224;2023-07-24T00:23:49;14.07;;;8.10;;
50128;SDS011;36026;45.478;9.224;2023-07-24T00:26:51;12.73;;;8.35;;
50128;SDS011;36026;45.478;9.224;2023-07-24T00:29:54;15.57;;;9.48;;
50128;SDS011;36026;45.478;9.224;2023-07-24T00:32:55;13.32;;;9.05;;
50128;SDS011;36026;45.478;9.224;2023-07-24T00:35:57;16.30;;;8.88;;
50128;SDS011;36026;45.478;9.224;2023-07-24T00:38:58;12.50;;;8.63;;
50128;SDS011;36026;45.478;9.224;2023-07-24T00:41:59;14.15;;;9.32;;
50128;SDS011;36026;45.478;9.224;2023-07-24T00:45:03;13.32;;;8.95;;
50128;SDS011;36026;45.478;9.224;2023-07-24T00:48:04;15.18;;;9.15;;
50128;SDS011;36026;45.478;9.224;2023-07-24T00:51:06;14.20;;;9.57;;
50128;SDS011;36026;45.478;9.224;2023-07-24T00:54:07;14.93;;;8.63;;
50128;SDS011;36026;45.478;9.224;2023-07-24T00:57:09;14.98;;;9.60;;
50128;SDS011;36026;45.478;9.224;2023-07-24T01:00:12;14.45;;;9.27;;
50128;SDS011;36026;45.478;9.224;2023-07-24T01:03:14;16.27;;;9.05;;
50128;SDS011;36026;45.478;9.224;2023-07-24T01:06:16;16.90;;;8.90;;
50128;SDS011;36026;45.478;9.224;2023-07-24T01:09:17;14.85;;;9.32;;
50128;SDS011;36026;45.478;9.224;2023-07-24T01:12:20;13.93;;;8.13;;
50128;SDS011;36026;45.478;9.224;2023-07-24T01:15:30;13.23;;;8.63;;
50128;SDS011;36026;45.478;9.224;2023-07-24T01:18:33;14.68;;;8.52;;
50128;SDS011;36026;45.478;9.224;2023-07-24T01:21:38;14.80;;;8.52;;
50128;SDS011;36026;45.478;9.224;2023-07-24T01:24:48;13.95;;;9.07;;
50128;SDS011;36026;45.478;9.224;2023-07-24T01:27:54;13.38;;;8.68;;
50128;SDS011;36026;45.478;9.224;2023-07-24T01:30:56;14.48;;;9.02;;
50128;SDS011;36026;45.478;9.224;2023-07-24T01:33:57;12.60;;;8.10;;
50128;SDS011;36026;45.478;9.224;2023-07-24T01:36:59;14.35;;;8.18;;
50128;SDS011;36026;45.478;9.224;2023-07-24T01:40:00;12.48;;;8.50;;
50128;SDS011;36026;45.478;9.224;2023-07-24T01:43:04;13.73;;;8.55;;
50128;SDS011;36026;45.478;9.224;2023-07-24T01:46:06;13.25;;;8.77;;
50128;SDS011;36026;45.478;9.224;2023-07-24T01:49:08;15.80;;;9.23;;
50128;SDS011;36026;45.478;9.224;2023-07-24T01:52:10;13.98;;;8.48;;
50128;SDS011;36026;45.478;9.224;2023-07-24T01:55:11;13.55;;;9.32;;
50128;SDS011;36026;45.478;9.224;2023-07-24T01:58:14;13.85;;;8.75;;
50128;SDS011;36026;45.478;9.224;2023-07-24T02:01:15;17.30;;;9.25;;
50128;SDS011;36026;45.478;9.224;2023-07-24T02:04:17;13.52;;;9.55;;
50128;SDS011;36026;45.478;9.224;2023-07-24T02:07:22;14.40;;;9.73;;
50128;SDS011;36026;45.478;9.224;2023-07-24T02:10:23;14.45;;;9.32;;
50128;SDS011;36026;45.478;9.224;2023-07-24T02:13:26;14.63;;;9.75;;
50128;SDS011;36026;45.478;9.224;2023-07-24T02:16:28;15.02;;;9.68;;
50128;SDS011;36026;45.478;9.224;2023-07-24T02:19:29;15.05;;;9.05;;
50128;SDS011;36026;45.478;9.224;2023-07-24T02:22:30;15.35;;;9.52;;
50128;SDS011;36026;45.478;9.224;2023-07-24T02:25:32;13.27;;;8.68;;
50128;SDS011;36026;45.478;9.224;2023-07-24T02:28:35;17.13;;;10.57;;
50128;SDS011;36026;45.478;9.224;2023-07-24T02:31:36;15.90;;;10.35;;
50128;SDS011;36026;45.478;9.224;2023-07-24T02:34:38;14.68;;;9.57;;
50128;SDS011;36026;45.478;9.224;2023-07-24T02:37:39;15.38;;;9.20;;
50128;SDS011;36026;45.478;9.224;2023-07-24T02:40:41;15.70;;;10.00;;
50128;SDS011;36026;45.478;9.224;2023-07-24T02:43:44;15.95;;;9.63;;
50128;SDS011;36026;45.478;9.224;2023-07-24T02:46:45;14.65;;;9.23;;
50128;SDS011;36026;45.478;9.224;2023-07-24T02:49:46;14.52;;;9.60;;
50128;SDS011;36026;45.478;9.224;2023-07-24T02:52:48;13.85;;;9.45;;
50128;SDS011;36026;45.478;9.224;2023-07-24T02:55:49;14.43;;;9.38;;
50128;SDS011;36026;45.478;9.224;2023-07-24T02:58:52;13.75;;;8.68;;
50128;SDS011;36026;45.478;9.224;2023-07-24T03:01:53;14.95;;;9.63;;
50128;SDS011;36026;45.478;9.224;2023-07-24T03:04:55;14.43;;;9.73;;
50128;SDS011;36026;45.478;9.224;2023-07-24T03:07:57;14.55;;;8.95;;
50128;SDS011;36026;45.478;9.224;2023-07-24T03:10:58;13.82;;;8.00;;
50128;SDS011;36026;45.478;9.224;2023-07-24T03:14:01;15.90;;;9.32;;
50128;SDS011;36026;45.478;9.224;2023-07-24T03:17:03;13.60;;;8.90;;
50128;SDS011;36026;45.478;9.224;2023-07-24T03:20:08;13.70;;;9.45;;
50128;SDS011;36026;45.478;9.224;2023-07-24T03:23:10;16.23;;;9.52;;
50128;SDS011;36026;45.478;9.224;2023-07-24T03:26:11;14.95;;;9.27;;
50128;SDS011;36026;45.478;9.224;2023-07-24T03:29:14;15.07;;;9.73;;
50128;SDS011;36026;45.478;9.224;2023-07-24T03:32:15;16.77;;;9.85;;
50128;SDS011;36026;45.478;9.224;2023-07-24T03:35:17;13.75;;;9.07;;
50128;SDS011;36026;45.478;9.224;2023-07-24T03:38:18;17.38;;;9.95;;
50128;SDS011;36026;45.478;9.224;2023-07-24T03:41:20;18.17;;;9.45;;
50128;SDS011;36026;45.478;9.224;2023-07-24T03:44:23;15.88;;;8.68;;
50128;SDS011;36026;45.478;9.224;2023-07-24T03:47:25;15.80;;;9.27;;
50128;SDS011;36026;45.478;9.224;2023-07-24T03:50:28;14.20;;;9.00;;
50128;SDS011;36026;45.478;9.224;2023-07-24T03:53:30;14.48;;;9.38;;
50128;SDS011;36026;45.478;9.224;2023-07-24T03:56:31;15.32;;;9.43;;
50128;SDS011;36026;45.478;9.224;2023-07-24T03:59:34;14.45;;;9.25;;
50128;SDS011;36026;45.478;9.224;2023-07-24T04:02:36;14.88;;;9.60;;
50128;SDS011;36026;45.478;9.224;2023-07-24T04:05:38;12.55;;;8.50;;
50128;SDS011;36026;45.478;9.224;2023-07-24T04:08:39;14.70;;;8.60;;
50128;SDS011;36026;45.478;9.224;2023-07-24T04:11:41;17.58;;;9.95;;
50128;SDS011;36026;45.478;9.224;2023-07-24T04:14:44;19.13;;;10.18;;
50128;SDS011;36026;45.478;9.224;2023-07-24T04:17:45;16.05;;;8.73;;
50128;SDS011;36026;45.478;9.224;2023-07-24T04:20:46;16.58;;;9.60;;
50128;SDS011;36026;45.478;9.224;2023-07-24T04:23:48;13.48;;;8.93;;
50128;SDS011;36026;45.478;9.224;2023-07-24T04:26:49;16.25;;;9.63;;
50128;SDS011;36026;45.478;9.224;2023-07-24T04:29:52;16.30;;;9.73;;
50128;SDS011;36026;45.478;9.224;2023-07-24T04:32:54;14.93;;;10.10;;
50128;SDS011;36026;45.478;9.224;2023-07-24T04:35:55;15.70;;;9.65;;
50128;SDS011;36026;45.478;9.224;2023-07-24T04:38:57;15.70;;;9.50;;
50128;SDS011;36026;45.478;9.224;2023-07-24T04:41:58;15.20;;;10.02;;
50128;SDS011;36026;45.478;9.224;2023-07-24T04:45:01;14.32;;;9.38;;
50128;SDS011;36026;45.478;9.224;2023-07-24T04:48:02;14.40;;;9.38;;
50128;SDS011;36026;45.478;9.224;2023-07-24T04:51:04;15.30;;;8.77;;
50128;SDS011;36026;45.478;9.224;2023-07-24T04:54:05;16.38;;;9.02;;
50128;SDS011;36026;45.478;9.224;2023-07-24T04:57:07;16.42;;;9.32;;
50128;SDS011;36026;45.478;9.224;2023-07-24T05:00:10;13.85;;;9.00;;
50128;SDS011;36026;45.478;9.224;2023-07-24T05:03:12;14.63;;;9.15;;
50128;SDS011;36026;45.478;9.224;2023-07-24T05:06:16;15.77;;;9.90;;
50128;SDS011;36026;45.478;9.224;2023-07-24T05:09:18;14.45;;;9.13;;
50128;SDS011;36026;45.478;9.224;2023-07-24T05:12:19;15.98;;;9.13;;
50128;SDS011;36026;45.478;9.224;2023-07-24T05:15:22;16.98;;;9.57;;
50128;SDS011;36026;45.478;9.224;2023-07-24T05:18:24;16.05;;;9.55;;
50128;SDS011;36026;45.478;9.224;2023-07-24T05:21:25;17.17;;;10.25;;
50128;SDS011;36026;45.478;9.224;2023-07-24T05:24:27;15.82;;;9.93;;
50128;SDS011;36026;45.478;9.224;2023-07-24T05:27:28;17.17;;;10.23;;
50128;SDS011;36026;45.478;9.224;2023-07-24T05:30:32;18.53;;;10.27;;
50128;SDS011;36026;45.478;9.224;2023-07-24T05:33:33;21.13;;;10.20;;
50128;SDS011;36026;45.478;9.224;2023-07-24T05:36:35;13.90;;;8.75;;
50128;SDS011;36026;45.478;9.224;2023-07-24T05:39:37;17.63;;;9.68;;
50128;SDS011;36026;45.478;9.224;2023-07-24T05:42:38;18.15;;;10.25;;
50128;SDS011;36026;45.478;9.224;2023-07-24T05:45:44;14.30;;;9.32;;
50128;SDS011;36026;45.478;9.224;2023-07-24T05:48:46;17.63;;;9.57;;
50128;SDS011;36026;45.478;9.224;2023-07-24T05:51:47;17.33;;;10.25;;
50128;SDS011;36026;45.478;9.224;2023-07-24T05:54:49;16.77;;;10.02;;
50128;SDS011;36026;45.478;9.224;2023-07-24T05:57:50;16.90;;;10.23;;
50128;SDS011;36026;45.478;9.224;2023-07-24T06:00:53;17.13;;;10.15;;
50128;SDS011;36026;45.478;9.224;2023-07-24T06:03:55;17.10;;;9.77;;
50128;SDS011;36026;45.478;9.224;2023-07-24T06:06:57;19.25;;;9.75;;
50128;SDS011;36026;45.478;9.224;2023-07-24T06:09:58;16.67;;;9.57;;
50128;SDS011;36026;45.478;9.224;2023-07-24T06:13:00;13.10;;;8.95;;
50128;SDS011;36026;45.478;9.224;2023-07-24T06:16:03;20.88;;;10.45;;
50128;SDS011;36026;45.478;9.224;2023-07-24T06:22:06;15.18;;;9.18;;
50128;SDS011;36026;45.478;9.224;2023-07-24T06:25:08;16.48;;;9.45;;
50128;SDS011;36026;45.478;9.224;2023-07-24T06:28:09;14.48;;;9.52;;
50128;SDS011;36026;45.478;9.224;2023-07-24T06:31:12;16.40;;;9.57;;
50128;SDS011;36026;45.478;9.224;2023-07-24T06:34:14;16.70;;;10.13;;
50128;SDS011;36026;45.478;9.224;2023-07-24T06:37:15;21.00;;;10.68;;
50128;SDS011;36026;45.478;9.224;2023-07-24T06:40:17;16.30;;;9.80;;
50128;SDS011;36026;45.478;9.224;2023-07-24T06:43:18;21.67;;;10.43;;
50128;SDS011;36026;45.478;9.224;2023-07-24T06:46:21;19.38;;;9.93;;
50128;SDS011;36026;45.478;9.224;2023-07-24T06:49:22;15.77;;;9.65;;
50128;SDS011;36026;45.478;9.224;2023-07-24T06:52:24;19.45;;;10.38;;
50128;SDS011;36026;45.478;9.224;2023-07-24T06:55:25;20.33;;;10.38;;
50128;SDS011;36026;45.478;9.224;2023-07-24T06:58:27;17.60;;;9.63;;
50128;SDS011;36026;45.478;9.224;2023-07-24T07:01:30;16.42;;;9.38;;
50128;SDS011;36026;45.478;9.224;2023-07-24T07:04:31;16.95;;;10.27;;
50128;SDS011;36026;45.478;9.224;2023-07-24T07:07:33;17.30;;;10.38;;
50128;SDS011;36026;45.478;9.224;2023-07-24T07:10:34;16.33;;;9.75;;
50128;SDS011;36026;45.478;9.224;2023-07-24T07:13:36;19.88;;;10.98;;
50128;SDS011;36026;45.478;9.224;2023-07-24T07:16:39;17.75;;;10.68;;
50128;SDS011;36026;45.478;9.224;2023-07-24T07:19:41;16.33;;;10.13;;
50128;SDS011;36026;45.478;9.224;2023-07-24T07:22:42;17.95;;;10.60;;
50128;SDS011;36026;45.478;9.224;2023-07-24T07:25:44;17.05;;;10.50;;
50128;SDS011;36026;45.478;9.224;2023-07-24T07:28:46;17.92;;;10.40;;
50128;SDS011;36026;45.478;9.224;2023-07-24T07:31:49;17.33;;;10.02;;
50128;SDS011;36026;45.478;9.224;2023-07-24T07:34:50;14.88;;;8.95;;
50128;SDS011;36026;45.478;9.224;2023-07-24T07:37:52;16.50;;;9.02;;
50128;SDS011;36026;45.478;9.224;2023-07-24T07:40:53;17.15;;;9.68;;
50128;SDS011;36026;45.478;9.224;2023-07-24T07:43:55;16.23;;;9.02;;
50128;SDS011;36026;45.478;9.224;2023-07-24T07:46:58;16.60;;;9.77;;
50128;SDS011;36026;45.478;9.224;2023-07-24T07:49:59;17.58;;;9.88;;
50128;SDS011;36026;45.478;9.224;2023-07-24T07:53:00;14.80;;;9.07;;
50128;SDS011;36026;45.478;9.224;2023-07-24T07:56:02;21.85;;;9.70;;
50128;SDS011;36026;45.478;9.224;2023-07-24T07:59:03;14.25;;;8.52;;
50128;SDS011;36026;45.478;9.224;2023-07-24T08:02:06;13.25;;;8.75;;
50128;SDS011;36026;45.478;9.224;2023-07-24T08:05:08;15.23;;;8.95;;
50128;SDS011;36026;45.478;9.224;2023-07-24T08:08:10;14.77;;;9.50;;
50128;SDS011;36026;45.478;9.224;2023-07-24T08:11:11;17.85;;;8.90;;
50128;SDS011;36026;45.478;9.224;2023-07-24T08:14:13;15.15;;;9.73;;
50128;SDS011;36026;45.478;9.224;2023-07-24T08:17:16;19.15;;;10.68;;
50128;SDS011;36026;45.478;9.224;2023-07-24T08:23:18;14.82;;;8.30;;
50128;SDS011;36026;45.478;9.224;2023-07-24T08:26:20;18.25;;;9.20;;
50128;SDS011;36026;45.478;9.224;2023-07-24T08:29:21;17.40;;;10.18;;
50128;SDS011;36026;45.478;9.224;2023-07-24T08:32:24;13.25;;;8.48;;
50128;SDS011;36026;45.478;9.224;2023-07-24T08:38:27;18.10;;;9.38;;
50128;SDS011;36026;45.478;9.224;2023-07-24T08:41:28;14.70;;;9.25;;
50128;SDS011;36026;45.478;9.224;2023-07-24T08:44:32;15.30;;;9.15;;
50128;SDS011;36026;45.478;9.224;2023-07-24T08:47:35;14.38;;;8.88;;
50128;SDS011;36026;45.478;9.224;2023-07-24T08:50:37;13.98;;;9.20;;
50128;SDS011;36026;45.478;9.224;2023-07-24T08:53:39;15.75;;;8.68;;
50128;SDS011;36026;45.478;9.224;2023-07-24T08:56:40;16.35;;;8.88;;
50128;SDS011;36026;45.478;9.224;2023-07-24T08:59:47;15.63;;;9.23;;
50128;SDS011;36026;45.478;9.224;2023-07-24T09:02:50;13.73;;;9.18;;
50128;SDS011;36026;45.478;9.224;2023-07-24T09:05:51;15.35;;;9.80;;
50128;SDS011;36026;45.478;9.224;2023-07-24T09:08:53;14.90;;;8.77;;
50128;SDS011;36026;45.478;9.224;2023-07-24T09:11:55;15.60;;;10.13;;
50128;SDS011;36026;45.478;9.224;2023-07-24T09:15:01;14.05;;;9.35;;
50128;SDS011;36026;45.478;9.224;2023-07-24T09:18:04;13.45;;;9.00;;
50128;SDS011;36026;45.478;9.224;2023-07-24T09:21:06;17.85;;;10.73;;
50128;SDS011;36026;45.478;9.224;2023-07-24T09:24:11;14.65;;;9.23;;
50128;SDS011;36026;45.478;9.224;2023-07-24T09:27:12;13.63;;;8.73;;
50128;SDS011;36026;45.478;9.224;2023-07-24T09:30:14;16.75;;;8.27;;
50128;SDS011;36026;45.478;9.224;2023-07-24T09:33:18;17.15;;;9.68;;
50128;SDS011;36026;45.478;9.224;2023-07-24T09:39:24;14.48;;;9.32;;
50128;SDS011;36026;45.478;9.224;2023-07-24T09:42:29;15.18;;;9.68;;
50128;SDS011;36026;45.478;9.224;2023-07-24T09:45:31;15.07;;;9.68;;
50128;SDS011;36026;45.478;9.224;2023-07-24T09:48:34;15.35;;;9.98;;
50128;SDS011;36026;45.478;9.224;2023-07-24T09:51:36;15.38;;;9.70;;
50128;SDS011;36026;45.478;9.224;2023-07-24T09:54:43;16.52;;;9.00;;
50128;SDS011;36026;45.478;9.224;2023-07-24T09:57:47;13.68;;;8.43;;
50128;SDS011;36026;45.478;9.224;2023-07-24T10:00:50;14.10;;;9.20;;
50128;SDS011;36026;45.478;9.224;2023-07-24T10:03:52;15.25;;;9.00;;
50128;SDS011;36026;45.478;9.224;2023-07-24T10:06:54;19.80;;;9.73;;
50128;SDS011;36026;45.478;9.224;2023-07-24T10:09:56;14.35;;;9.25;;
50128;SDS011;36026;45.478;9.224;2023-07-24T10:12:58;15.27;;;8.83;;
50128;SDS011;36026;45.478;9.224;2023-07-24T10:15:59;15.65;;;9.73;;
50128;SDS011;36026;45.478;9.224;2023-07-24T10:19:12;16.90;;;10.60;;
50128;SDS011;36026;45.478;9.224;2023-07-24T10:22:16;17.52;;;9.70;;
50128;SDS011;36026;45.478;9.224;2023-07-24T10:25:18;16.83;;;9.20;;
50128;SDS011;36026;45.478;9.224;2023-07-24T10:28:31;17.73;;;10.57;;
50128;SDS011;36026;45.478;9.224;2023-07-24T10:31:33;21.08;;;10.05;;
50128;SDS011;36026;45.478;9.224;2023-07-24T10:34:39;17.27;;;9.95;;
50128;SDS011;36026;45.478;9.224;2023-07-24T10:37:40;18.95;;;10.05;;
50128;SDS011;36026;45.478;9.224;2023-07-24T10:40:42;20.17;;;9.50;;
50128;SDS011;36026;45.478;9.224;2023-07-24T10:43:44;14.60;;;8.60;;
50128;SDS011;36026;45.478;9.224;2023-07-24T10:46:46;15.48;;;9.07;;
50128;SDS011;36026;45.478;9.224;2023-07-24T10:49:49;15.32;;;8.98;;
50128;SDS011;36026;45.478;9.224;2023-07-24T10:52:51;15.85;;;9.32;;
50128;SDS011;36026;45.478;9.224;2023-07-24T10:55:52;14.30;;;9.32;;
50128;SDS011;36026;45.478;9.224;2023-07-24T10:58:54;16.02;;;8.85;;
50128;SDS011;36026;45.478;9.224;2023-07-24T11:01:55;15.18;;;8.95;;
50128;SDS011;36026;45.478;9.224;2023-07-24T11:04:59;14.10;;;9.23;;
50128;SDS011;36026;45.478;9.224;2023-07-24T11:08:01;14.35;;;9.10;;
50128;SDS011;36026;45.478;9.224;2023-07-24T11:11:09;16.05;;;8.85;;
50128;SDS011;36026;45.478;9.224;2023-07-24T11:14:13;15.25;;;8.93;;
50128;SDS011;36026;45.478;9.224;2023-07-24T11:17:14;14.07;;;8.30;;
50128;SDS011;36026;45.478;9.224;2023-07-24T11:20:17;16.15;;;8.77;;
50128;SDS011;36026;45.478;9.224;2023-07-24T11:26:20;14.38;;;8.50;;
50128;SDS011;36026;45.478;9.224;2023-07-24T11:29:22;13.88;;;8.93;;
50128;SDS011;36026;45.478;9.224;2023-07-24T11:32:24;13.03;;;8.50;;
50128;SDS011;36026;45.478;9.224;2023-07-24T11:35:27;14.50;;;7.95;;
50128;SDS011;36026;45.478;9.224;2023-07-24T11:41:29;14.90;;;8.13;;
50128;SDS011;36026;45.478;9.224;2023-07-24T11:44:32;17.42;;;9.18;;
50128;SDS011;36026;45.478;9.224;2023-07-24T11:47:40;16.08;;;9.07;;
50128;SDS011;36026;45.478;9.224;2023-07-24T11:50:44;13.02;;;8.50;;
50128;SDS011;36026;45.478;9.224;2023-07-24T11:53:46;14.68;;;9.02;;
50128;SDS011;36026;45.478;9.224;2023-07-24T11:56:47;16.00;;;9.15;;
50128;SDS011;36026;45.478;9.224;2023-07-24T11:59:49;16.70;;;8.88;;
50128;SDS011;36026;45.478;9.224;2023-07-24T12:02:50;17.25;;;10.77;;
50128;SDS011;36026;45.478;9.224;2023-07-24T12:05:53;27.95;;;15.13;;
50128;SDS011;36026;45.478;9.224;2023-07-24T12:09:00;16.50;;;8.93;;
50128;SDS011;36026;45.478;9.224;2023-07-24T12:12:03;14.05;;;7.40;;
50128;SDS011;36026;45.478;9.224;2023-07-24T12:15:05;10.97;;;6.70;;
50128;SDS011;36026;45.478;9.224;2023-07-24T12:18:07;31.17;;;17.48;;
50128;SDS011;36026;45.478;9.224;2023-07-24T12:21:10;24.90;;;15.20;;
50128;SDS011;36026;45.478;9.224;2023-07-24T12:24:12;8.73;;;3.75;;
50128;SDS011;36026;45.478;9.224;2023-07-24T12:27:13;4.00;;;2.70;;
50128;SDS011;36026;45.478;9.224;2023-07-24T12:30:15;5.43;;;2.30;;
50128;SDS011;36026;45.478;9.224;2023-07-24T12:33:16;5.55;;;2.90;;
50128;SDS011;36026;45.478;9.224;2023-07-24T12:36:19;7.28;;;2.83;;
50128;SDS011;36026;45.478;9.224;2023-07-24T12:39:21;5.82;;;2.97;;
50128;SDS011;36026;45.478;9.224;2023-07-24T12:42:22;5.50;;;3.20;;
50128;SDS011;36026;45.478;9.224;2023-07-24T12:45:24;6.95;;;3.95;;
50128;SDS011;36026;45.478;9.224;2023-07-24T12:48:26;10.05;;;4.50;;
50128;SDS011;36026;45.478;9.224;2023-07-24T12:51:28;8.52;;;4.80;;
50128;SDS011;36026;45.478;9.224;2023-07-24T12:54:30;10.45;;;5.63;;
50128;SDS011;36026;45.478;9.224;2023-07-24T12:57:32;8.35;;;4.63;;
50128;SDS011;36026;45.478;9.224;2023-07-24T13:00:34;10.05;;;5.07;;
50128;SDS011;36026;45.478;9.224;2023-07-24T13:03:36;9.15;;;5.72;;
50128;SDS011;36026;45.478;9.224;2023-07-24T13:06:38;8.30;;;5.28;;
50128;SDS011;36026;45.478;9.224;2023-07-24T13:09:40;9.90;;;5.50;;
50128;SDS011;36026;45.478;9.224;2023-07-24T13:12:42;9.38;;;5.55;;
50128;SDS011;36026;45.478;9.224;2023-07-24T13:15:44;11.73;;;5.70;;
50128;SDS011;36026;45.478;9.224;2023-07-24T13:18:46;9.88;;;5.78;;
50128;SDS011;36026;45.478;9.224;2023-07-24T13:21:48;10.10;;;5.25;;
50128;SDS011;36026;45.478;9.224;2023-07-24T13:24:50;8.57;;;4.97;;
50128;SDS011;36026;45.478;9.224;2023-07-24T13:27:52;10.88;;;6.30;;
50128;SDS011;36026;45.478;9.224;2023-07-24T13:30:53;12.27;;;6.03;;
50128;SDS011;36026;45.478;9.224;2023-07-24T13:33:55;10.02;;;6.30;;
50128;SDS011;36026;45.478;9.224;2023-07-24T13:36:58;11.13;;;6.78;;
50128;SDS011;36026;45.478;9.224;2023-07-24T13:39:59;13.52;;;8.48;;
50128;SDS011;36026;45.478;9.224;2023-07-24T13:43:01;41.92;;;28.40;;
50128;SDS011;36026;45.478;9.224;2023-07-24T13:46:03;22.30;;;11.63;;
50128;SDS011;36026;45.478;9.224;2023-07-24T13:49:05;13.73;;;6.70;;
50128;SDS011;36026;45.478;9.224;2023-07-24T13:52:08;11.07;;;6.28;;
50128;SDS011;36026;45.478;9.224;2023-07-24T13:58:10;11.30;;;6.47;;
50128;SDS011;36026;45.478;9.224;2023-07-24T14:01:12;9.43;;;6.15;;
50128;SDS011;36026;45.478;9.224;2023-07-24T14:04:13;10.15;;;5.63;;
50128;SDS011;36026;45.478;9.224;2023-07-24T14:07:17;10.13;;;6.30;;
50128;SDS011;36026;45.478;9.224;2023-07-24T14:13:19;9.48;;;5.63;;
50128;SDS011;36026;45.478;9.224;2023-07-24T14:16:21;9.70;;;6.07;;
50128;SDS011;36026;45.478;9.224;2023-07-24T14:19:22;11.95;;;5.95;;
50128;SDS011;36026;45.478;9.224;2023-07-24T14:22:25;8.98;;;6.03;;
50128;SDS011;36026;45.478;9.224;2023-07-24T14:28:28;9.90;;;5.93;;
50128;SDS011;36026;45.478;9.224;2023-07-24T14:31:29;7.93;;;5.18;;
50128;SDS011;36026;45.478;9.224;2023-07-24T14:34:31;9.35;;;5.00;;
50128;SDS011;36026;45.478;9.224;2023-07-24T14:37:34;9.93;;;5.97;;
50128;SDS011;36026;45.478;9.224;2023-07-24T14:43:37;18.75;;;13.60;;
50128;SDS011;36026;45.478;9.224;2023-07-24T14:46:38;12.65;;;7.45;;
50128;SDS011;36026;45.478;9.224;2023-07-24T14:49:39;13.25;;;8.55;;
50128;SDS011;36026;45.478;9.224;2023-07-24T14:52:42;8.57;;;5.32;;
50128;SDS011;36026;45.478;9.224;2023-07-24T14:55:44;12.25;;;5.25;;
50128;SDS011;36026;45.478;9.224;2023-07-24T14:58:45;10.20;;;5.25;;
50128;SDS011;36026;45.478;9.224;2023-07-24T15:01:47;9.90;;;5.95;;
50128;SDS011;36026;45.478;9.224;2023-07-24T15:04:48;10.77;;;5.80;;
50128;SDS011;36026;45.478;9.224;2023-07-24T15:07:51;11.07;;;5.30;;
50128;SDS011;36026;45.478;9.224;2023-07-24T15:10:53;10.82;;;5.82;;
50128;SDS011;36026;45.478;9.224;2023-07-24T15:13:54;8.77;;;5.32;;
50128;SDS011;36026;45.478;9.224;2023-07-24T15:16:56;8.80;;;5.20;;
50128;SDS011;36026;45.478;9.224;2023-07-24T15:19:57;10.23;;;5.65;;
50128;SDS011;36026;45.478;9.224;2023-07-24T15:23:00;9.85;;;5.35;;
50128;SDS011;36026;45.478;9.224;2023-07-24T15:26:02;11.18;;;6.10;;
50128;SDS011;36026;45.478;9.224;2023-07-24T15:29:03;11.25;;;5.65;;
50128;SDS011;36026;45.478;9.224;2023-07-24T15:32:05;11.90;;;5.63;;
50128;SDS011;36026;45.478;9.224;2023-07-24T15:35:07;8.82;;;5.50;;
50128;SDS011;36026;45.478;9.224;2023-07-24T15:38:10;8.50;;;5.50;;
50128;SDS011;36026;45.478;9.224;2023-07-24T15:41:11;8.98;;;4.97;;
50128;SDS011;36026;45.478;9.224;2023-07-24T15:44:13;9.90;;;5.50;;
50128;SDS011;36026;45.478;9.224;2023-07-24T15:47:14;8.93;;;5.50;;
50128;SDS011;36026;45.478;9.224;2023-07-24T15:50:16;8.70;;;5.82;;
50128;SDS011;36026;45.478;9.224;2023-07-24T15:53:19;8.20;;;4.85;;
50128;SDS011;36026;45.478;9.224;2023-07-24T15:56:20;15.38;;;6.63;;
50128;SDS011;36026;45.478;9.224;2023-07-24T15:59:22;10.38;;;6.18;;
50128;SDS011;36026;45.478;9.224;2023-07-24T16:02:23;9.80;;;6.40;;
50128;SDS011;36026;45.478;9.224;2023-07-24T16:05:25;10.38;;;6.13;;
50128;SDS011;36026;45.478;9.224;2023-07-24T16:08:28;9.05;;;5.80;;
50128;SDS011;36026;45.478;9.224;2023-07-24T16:11:29;11.23;;;5.90;;
50128;SDS011;36026;45.478;9.224;2023-07-24T16:14:32;11.63;;;5.80;;
50128;SDS011;36026;45.478;9.224;2023-07-24T16:17:34;11.43;;;6.55;;
50128;SDS011;36026;45.478;9.224;2023-07-24T16:20:35;10.13;;;5.88;;
50128;SDS011;36026;45.478;9.224;2023-07-24T16:23:38;11.05;;;6.55;;
50128;SDS011;36026;45.478;9.224;2023-07-24T16:26:40;11.48;;;6.18;;
50128;SDS011;36026;45.478;9.224;2023-07-24T16:29:42;11.17;;;5.87;;
50128;SDS011;36026;45.478;9.224;2023-07-24T16:32:44;10.23;;;6.25;;
50128;SDS011;36026;45.478;9.224;2023-07-24T16:35:45;11.73;;;6.10;;
50128;SDS011;36026;45.478;9.224;2023-07-24T16:38:48;10.00;;;6.25;;
50128;SDS011;36026;45.478;9.224;2023-07-24T16:41:49;13.40;;;5.85;;
50128;SDS011;36026;45.478;9.224;2023-07-24T16:44:51;10.45;;;5.95;;
50128;SDS011;36026;45.478;9.224;2023-07-24T16:47:52;10.30;;;6.18;;
50128;SDS011;36026;45.478;9.224;2023-07-24T16:50:54;10.23;;;6.20;;
50128;SDS011;36026;45.478;9.224;2023-07-24T16:53:57;10.02;;;6.65;;
50128;SDS011;36026;45.478;9.224;2023-07-24T17:00:00;11.32;;;6.90;;
50128;SDS011;36026;45.478;9.224;2023-07-24T17:03:01;12.05;;;7.20;;
50128;SDS011;36026;45.478;9.224;2023-07-24T17:06:03;11.75;;;6.68;;
50128;SDS011;36026;45.478;9.224;2023-07-24T17:09:05;11.93;;;7.38;;
50128;SDS011;36026;45.478;9.224;2023-07-24T17:12:07;11.50;;;7.13;;
50128;SDS011;36026;45.478;9.224;2023-07-24T17:15:09;12.73;;;7.35;;
50128;SDS011;36026;45.478;9.224;2023-07-24T17:18:10;13.65;;;6.90;;
50128;SDS011;36026;45.478;9.224;2023-07-24T17:21:12;9.93;;;5.38;;
50128;SDS011;36026;45.478;9.224;2023-07-24T17:24:15;12.45;;;7.40;;
50128;SDS011;36026;45.478;9.224;2023-07-24T17:27:16;11.98;;;6.28;;
50128;SDS011;36026;45.478;9.224;2023-07-24T17:30:17;11.65;;;6.78;;
50128;SDS011;36026;45.478;9.224;2023-07-24T17:33:19;10.95;;;6.78;;
50128;SDS011;36026;45.478;9.224;2023-07-24T17:36:20;10.52;;;6.82;;
50128;SDS011;36026;45.478;9.224;2023-07-24T17:39:23;9.93;;;6.13;;
50128;SDS011;36026;45.478;9.224;2023-07-24T17:42:25;10.48;;;6.50;;
50128;SDS011;36026;45.478;9.224;2023-07-24T17:45:26;9.70;;;5.75;;
50128;SDS011;36026;45.478;9.224;2023-07-24T17:48:28;10.20;;;6.00;;
50128;SDS011;36026;45.478;9.224;2023-07-24T17:51:29;9.57;;;5.57;;
50128;SDS011;36026;45.478;9.224;2023-07-24T17:54:32;10.82;;;5.75;;
50128;SDS011;36026;45.478;9.224;2023-07-24T17:57:34;11.05;;;5.93;;
50128;SDS011;36026;45.478;9.224;2023-07-24T18:00:36;9.68;;;5.93;;
50128;SDS011;36026;45.478;9.224;2023-07-24T18:03:40;10.55;;;5.72;;
50128;SDS011;36026;45.478;9.224;2023-07-24T18:06:42;11.70;;;6.40;;
50128;SDS011;36026;45.478;9.224;2023-07-24T18:09:44;11.70;;;6.38;;
50128;SDS011;36026;45.478;9.224;2023-07-24T18:12:46;9.65;;;5.50;;
50128;SDS011;36026;45.478;9.224;2023-07-24T18:15:47;10.30;;;5.85;;
50128;SDS011;36026;45.478;9.224;2023-07-24T18:18:52;11.70;;;5.78;;
50128;SDS011;36026;45.478;9.224;2023-07-24T18:24:58;10.93;;;5.53;;
50128;SDS011;36026;45.478;9.224;2023-07-24T18:27:59;10.15;;;5.90;;
50128;SDS011;36026;45.478;9.224;2023-07-24T18:31:01;9.65;;;6.05;;
50128;SDS011;36026;45.478;9.224;2023-07-24T18:34:02;9.80;;;6.40;;
50128;SDS011;36026;45.478;9.224;2023-07-24T18:37:04;10.57;;;6.03;;
50128;SDS011;36026;45.478;9.224;2023-07-24T18:40:08;9.32;;;6.03;;